Home   Weather   USA   Casper   Past weeks
Flag for USA

Past Weather in Casper, Wyoming, USA — Yesterday and Last 2 Weeks

Currently: 22 °F. Light snow. Mostly cloudy. (Weather station: Natrona County International Airport, USA). See more current weather

Past Weather in Casper — Graph

°F

Casper Temperature Yesterday

Maximum temperature yesterday: 58 °F (at 4:53 pm)
Minimum temperature yesterday: 30 °F (at 5:53 am)
Average temperature yesterday: 44 °F

High & Low Weather Summary for the Past Weeks

 TemperatureHumidityPressure
High71 °F (Apr 4, 3:53 pm)93% (Apr 9, 4:53 am)30.37 "Hg (Apr 9, 4:53 am)
Low21 °F (Apr 19, 1:08 pm)12% (Apr 4, 4:53 pm)29.53 "Hg (Apr 10, 5:53 pm)
Average35 °F65%30.04 "Hg
* Reported Apr 4 3:53 pm — Apr 19 3:12 pm, Casper. Weather by CustomWeather, © 2021

Note: Actual official high and low records may vary slightly from our data, if they occured in-between our weather recording intervals... More about our weather records

Casper Weather History for the Previous 24 Hours

Scroll right to see more
 ConditionsComfort  
Time TempWeatherWind HumidityBarometerVisibility
3:12 pm
Mon, Apr 19
22 °FLight snow. Mostly cloudy.17 mph82%30.15 "Hg1 mi
2:31 pm21 °FLight snow. Ice fog.15 mph85%30.16 "Hg1 mi
2:10 pm22 °FSnow. Ice fog.14 mph85%30.16 "Hg0 mi
1:53 pm21 °FSnow. Ice fog.14 mph88%30.27 "Hg0 mi
1:31 pm21 °FSnow. Ice fog.14 mph85%30.16 "Hg0 mi
1:17 pm21 °FSnow. Ice fog.13 mph88%30.15 "Hg1 mi
1:08 pm21 °FSnow. Ice fog.14 mph85%30.15 "Hg1 mi
12:53 pm22 °FLight snow. Mostly cloudy.20 mph82%30.22 "Hg1 mi
12:13 pm22 °FLight snow. Cloudy.20 mph78%30.13 "Hg1 mi
11:53 am22 °FLight snow. Ice fog.17 mph85%30.21 "Hg1 mi
11:37 am22 °FLight snow. Ice fog.16 mph85%30.14 "Hg1 mi
10:53 am22 °FLight snow. Mostly cloudy.18 mph82%30.20 "Hg1 mi
10:24 am22 °FLight snow. Mostly cloudy.21 mph82%30.13 "Hg1 mi
9:53 am23 °FLight snow. Ice fog.13 mph85%30.17 "Hg1 mi
9:35 am23 °FLight snow. Ice fog.13 mph88%30.12 "Hg1 mi
9:01 am23 °FLight snow. Ice fog.13 mph85%30.12 "Hg2 mi
8:32 am23 °FLight snow. More clouds than sun.15 mph81%30.12 "Hg5 mi
7:58 am23 °FLight snow. Ice fog.13 mph85%30.12 "Hg3 mi
7:44 am23 °FLight snow. Ice fog.16 mph85%30.12 "Hg2 mi
7:29 am24 °FLight snow. Cloudy.15 mph81%30.12 "Hg3 mi
7:10 am24 °FLight snow. Ice fog.13 mph88%30.13 "Hg5 mi
7:03 am24 °FLight snow. Cloudy.15 mph84%30.12 "Hg9 mi
6:53 am24 °FMore clouds than sun.14 mph84%30.13 "Hg10 mi
6:20 am24 °FLight snow. Ice fog.16 mph88%30.11 "Hg5 mi
6:10 am25 °FLight snow. Ice fog.13 mph85%30.11 "Hg4 mi
5:53 am25 °FLight snow. Ice fog.12 mph88%30.10 "Hg2 mi
5:37 am25 °FLight snow. Ice fog.16 mph88%30.11 "Hg2 mi
4:53 am25 °FLight snow. Ice fog.18 mph88%30.12 "Hg1 mi
4:12 am27 °FLight snow. Ice fog.20 mph89%30.12 "Hg2 mi
4:05 am27 °FLight snow. Ice fog.17 mph89%30.11 "Hg2 mi
3:53 am28 °FLight snow. Mostly cloudy.15 mph81%30.09 "Hg4 mi
3:30 am29 °FOvercast.20 mph82%30.11 "Hg10 mi
3:08 am29 °FMostly cloudy.22 mph82%30.08 "Hg10 mi
1:53 am31 °FLow clouds.25 mph85%30.02 "Hg10 mi
1:40 am32 °FMostly cloudy.24 mph85%30.05 "Hg10 mi
1:03 am36 °FMostly cloudy.20 mph85%30.04 "Hg10 mi
12:53 am37 °FPassing clouds.17 mph82%29.99 "Hg10 mi
11:53 pm
Sun, Apr 18
37 °FPassing clouds.14 mph76%29.96 "Hg10 mi
10:53 pm43 °FMostly cloudy.14 mph60%29.93 "Hg10 mi
9:53 pm44 °FOvercast.17 mph58%29.93 "Hg10 mi
8:53 pm42 °FPassing clouds.7 mph51%29.93 "Hg10 mi
7:53 pm47 °FClear.5 mph42%29.93 "Hg10 mi
6:53 pm51 °FSunny.9 mph31%29.95 "Hg10 mi
5:53 pm57 °FScattered clouds.16 mph23%29.96 "Hg10 mi
4:53 pm58 °FScattered clouds.14 mph22%29.96 "Hg10 mi
Weather by CustomWeather, © 2021

See weather overview